Time;durP1;ratioP1;P1;durP2;ratioP2;P2;SDS_P1;SDS_P2;PMS_P1;PMS_P2;Temp;Humidity;BMP_temperature;BMP_pressure;BME280_temperature;BME280_humidity;BME280_pressure;Samples;Min_cycle;Max_cycle;Signal;HPM_P1;HPM_P2
2023/05/26 00:00:23;;;;;;;24.15;4.13;;;;;;;;;;6191776;23;20420;-63
2023/05/26 00:02:49;;;;;;;27.17;5.47;;;;;;;;;;6192179;23;20388;-61
2023/05/26 00:05:20;;;;;;;23.48;4.65;;;;;;;;;;6218127;23;20012;-61
2023/05/26 00:07:46;;;;;;;29.23;4.47;;;;;;;;;;6246549;23;20024;-61
2023/05/26 00:10:12;;;;;;;26.33;5.30;;;;;;;;;;6245661;23;20066;-61
2023/05/26 00:12:38;;;;;;;33.08;4.95;;;;;;;;;;6246155;23;20020;-61
2023/05/26 00:15:05;;;;;;;24.58;4.75;;;;;;;;;;6245791;23;20337;-61
2023/05/26 00:17:31;;;;;;;29.80;5.28;;;;;;;;;;6219341;23;20775;-61
2023/05/26 00:19:59;;;;;;;22.70;4.75;;;;;;;;;;6245513;23;20024;-61
2023/05/26 00:22:26;;;;;;;23.55;5.45;;;;;;;;;;6219229;23;20012;-60
2023/05/26 00:24:52;;;;;;;28.35;5.40;;;;;;;;;;6217852;23;20323;-62
2023/05/26 00:27:19;;;;;;;23.83;5.25;;;;;;;;;;6245832;23;20019;-61
2023/05/26 00:29:45;;;;;;;30.00;4.53;;;;;;;;;;6219063;23;20441;-61
2023/05/26 00:32:11;;;;;;;29.88;4.88;;;;;;;;;;6218632;23;20027;-61
2023/05/26 00:34:37;;;;;;;27.13;4.28;;;;;;;;;;6219137;23;20073;-61
2023/05/26 00:37:03;;;;;;;33.60;5.38;;;;;;;;;;6218907;23;20551;-61
2023/05/26 00:39:30;;;;;;;27.70;5.18;;;;;;;;;;6244891;23;20056;-61
2023/05/26 00:41:56;;;;;;;23.85;4.88;;;;;;;;;;6219080;23;20024;-61
2023/05/26 00:44:23;;;;;;;18.52;3.97;;;;;;;;;;6246057;23;20311;-60
2023/05/26 00:46:49;;;;;;;21.38;4.25;;;;;;;;;;6219409;23;20023;-61
2023/05/26 00:49:15;;;;;;;22.92;4.88;;;;;;;;;;6245067;23;20016;-63
2023/05/26 00:51:43;;;;;;;27.30;4.78;;;;;;;;;;6245646;23;20028;-61
2023/05/26 00:54:09;;;;;;;26.85;4.50;;;;;;;;;;6217757;23;20441;-61
2023/05/26 00:56:35;;;;;;;20.55;4.85;;;;;;;;;;6217560;23;20020;-64
2023/05/26 00:59:05;;;;;;;31.55;5.50;;;;;;;;;;6245724;23;20020;-60
2023/05/26 01:01:32;;;;;;;28.50;4.25;;;;;;;;;;6244520;23;20095;-60
2023/05/26 01:03:59;;;;;;;23.25;4.57;;;;;;;;;;6218439;23;20020;-60
2023/05/26 01:06:25;;;;;;;36.13;8.25;;;;;;;;;;6193136;23;20024;-61
2023/05/26 01:08:51;;;;;;;25.05;5.32;;;;;;;;;;6217401;23;20027;-60
2023/05/26 01:11:21;;;;;;;28.35;4.80;;;;;;;;;;6193248;23;20017;-61
2023/05/26 01:13:50;;;;;;;22.27;5.00;;;;;;;;;;6218613;23;20147;-60
2023/05/26 01:16:17;;;;;;;25.70;5.13;;;;;;;;;;6217712;23;20019;-60
2023/05/26 01:18:47;;;;;;;33.17;5.38;;;;;;;;;;6244190;23;20019;-60
2023/05/26 01:21:13;;;;;;;23.33;5.47;;;;;;;;;;6217963;23;20062;-64
2023/05/26 01:23:48;;;;;;;20.70;4.18;;;;;;;;;;6217973;23;20056;-60
2023/05/26 01:26:15;;;;;;;20.80;4.05;;;;;;;;;;6217579;23;20012;-61
2023/05/26 01:28:43;;;;;;;30.50;5.07;;;;;;;;;;6217708;23;20032;-60
2023/05/26 01:31:12;;;;;;;26.90;5.05;;;;;;;;;;6193098;23;20095;-61
2023/05/26 01:33:38;;;;;;;29.13;4.90;;;;;;;;;;6244894;23;20016;-61
2023/05/26 01:36:04;;;;;;;22.55;5.53;;;;;;;;;;6245955;23;20102;-60
2023/05/26 01:38:30;;;;;;;36.97;6.75;;;;;;;;;;6192614;23;20016;-60
2023/05/26 01:41:04;;;;;;;29.35;4.82;;;;;;;;;;6244972;23;20102;-60
2023/05/26 01:43:42;;;;;;;29.17;5.55;;;;;;;;;;6244710;23;20062;-60
2023/05/26 01:46:11;;;;;;;24.13;5.53;;;;;;;;;;6245256;23;20380;-60
2023/05/26 01:48:40;;;;;;;24.25;5.05;;;;;;;;;;6245495;23;20103;-60
2023/05/26 01:51:07;;;;;;;30.58;6.25;;;;;;;;;;6218492;23;20449;-60
2023/05/26 01:53:34;;;;;;;26.67;5.13;;;;;;;;;;6217382;23;20316;-60
2023/05/26 01:56:01;;;;;;;26.65;6.50;;;;;;;;;;6245170;23;20027;-60
2023/05/26 01:58:27;;;;;;;23.90;5.25;;;;;;;;;;6244841;23;20022;-60
2023/05/26 02:00:53;;;;;;;23.77;5.68;;;;;;;;;;6218454;23;20024;-61
2023/05/26 02:03:20;;;;;;;30.35;5.85;;;;;;;;;;6245180;23;20016;-60
2023/05/26 02:05:46;;;;;;;37.05;5.35;;;;;;;;;;6193042;23;20083;-60
2023/05/26 02:08:13;;;;;;;24.85;5.30;;;;;;;;;;6244543;23;20016;-60
2023/05/26 02:10:39;;;;;;;22.58;5.60;;;;;;;;;;6242623;23;20402;-60
2023/05/26 02:13:06;;;;;;;23.23;4.60;;;;;;;;;;6245074;23;20102;-60
2023/05/26 02:15:32;;;;;;;26.73;5.13;;;;;;;;;;6243896;23;20333;-60
2023/05/26 02:17:58;;;;;;;25.38;5.60;;;;;;;;;;6244393;23;20395;-60
2023/05/26 02:20:25;;;;;;;26.52;5.05;;;;;;;;;;6243362;23;20020;-60
2023/05/26 02:22:51;;;;;;;26.75;5.97;;;;;;;;;;6244544;23;20306;-59
2023/05/26 02:25:17;;;;;;;24.30;5.10;;;;;;;;;;6244388;23;20024;-60
2023/05/26 02:27:43;;;;;;;24.23;5.03;;;;;;;;;;6244914;23;20425;-60
2023/05/26 02:30:10;;;;;;;27.27;4.35;;;;;;;;;;6244066;23;20016;-60
2023/05/26 02:32:36;;;;;;;20.67;3.85;;;;;;;;;;6244077;23;20020;-60
2023/05/26 02:35:06;;;;;;;29.70;6.60;;;;;;;;;;6244629;23;20103;-60
2023/05/26 02:37:32;;;;;;;21.88;4.82;;;;;;;;;;6216793;23;20372;-62
2023/05/26 02:39:58;;;;;;;29.27;4.35;;;;;;;;;;6217531;23;20019;-61
2023/05/26 02:42:24;;;;;;;25.95;4.97;;;;;;;;;;6216238;23;20043;-60
2023/05/26 02:44:50;;;;;;;24.13;4.82;;;;;;;;;;6217986;23;20016;-60
2023/05/26 02:47:16;;;;;;;21.17;4.15;;;;;;;;;;6243427;23;20027;-61
2023/05/26 02:49:42;;;;;;;21.92;4.57;;;;;;;;;;6243731;23;20012;-61
2023/05/26 02:52:09;;;;;;;24.90;5.65;;;;;;;;;;6217912;23;20104;-60
2023/05/26 02:54:35;;;;;;;24.98;5.10;;;;;;;;;;6241903;23;20054;-61
2023/05/26 02:57:01;;;;;;;30.20;6.90;;;;;;;;;;6244078;23;20016;-60
2023/05/26 02:59:27;;;;;;;18.75;4.57;;;;;;;;;;6244322;23;20114;-61
2023/05/26 03:01:53;;;;;;;23.27;4.82;;;;;;;;;;6217088;23;20016;-61
2023/05/26 03:04:19;;;;;;;30.58;4.55;;;;;;;;;;6242961;23;20026;-60
2023/05/26 03:06:45;;;;;;;25.30;4.75;;;;;;;;;;6217653;23;20012;-61
2023/05/26 03:09:11;;;;;;;17.90;3.75;;;;;;;;;;6243883;23;20039;-60
2023/05/26 03:11:38;;;;;;;19.05;3.88;;;;;;;;;;6243783;23;20082;-61
2023/05/26 03:14:05;;;;;;;34.10;4.95;;;;;;;;;;6244104;23;20012;-60
2023/05/26 03:16:31;;;;;;;17.52;4.47;;;;;;;;;;6243901;23;20023;-60
2023/05/26 03:18:57;;;;;;;27.60;4.93;;;;;;;;;;6242354;23;20471;-60
2023/05/26 03:21:23;;;;;;;24.10;4.80;;;;;;;;;;6216347;23;20030;-60
2023/05/26 03:23:49;;;;;;;15.90;4.13;;;;;;;;;;6243930;23;20020;-60
2023/05/26 03:26:15;;;;;;;13.10;3.28;;;;;;;;;;6244362;23;20023;-60
2023/05/26 03:28:41;;;;;;;24.90;4.32;;;;;;;;;;6244454;23;20095;-59
2023/05/26 03:31:08;;;;;;;25.88;5.53;;;;;;;;;;6216310;23;20515;-60
2023/05/26 03:33:34;;;;;;;21.60;5.57;;;;;;;;;;6216389;23;20030;-60
2023/05/26 03:36:00;;;;;;;27.75;5.40;;;;;;;;;;6217409;23;20051;-60
2023/05/26 03:38:26;;;;;;;23.67;4.65;;;;;;;;;;6217620;23;20055;-60
2023/05/26 03:40:52;;;;;;;26.27;5.88;;;;;;;;;;6244064;23;20012;-60
2023/05/26 03:43:19;;;;;;;16.67;3.85;;;;;;;;;;6217532;23;20075;-61
2023/05/26 03:45:45;;;;;;;22.88;4.72;;;;;;;;;;6217575;23;20145;-60
2023/05/26 03:48:13;;;;;;;21.75;4.13;;;;;;;;;;6243095;23;20023;-60
2023/05/26 03:50:40;;;;;;;22.33;5.43;;;;;;;;;;6244644;23;20024;-60
2023/05/26 03:53:09;;;;;;;16.95;4.55;;;;;;;;;;6244316;23;20031;-61
2023/05/26 03:55:36;;;;;;;18.27;4.07;;;;;;;;;;6244298;23;20012;-61
2023/05/26 03:58:02;;;;;;;18.80;4.95;;;;;;;;;;6243999;23;20016;-61
2023/05/26 04:00:31;;;;;;;23.63;4.55;;;;;;;;;;6243030;23;20078;-60
2023/05/26 04:02:58;;;;;;;15.90;4.70;;;;;;;;;;6244008;23;20043;-60
2023/05/26 04:05:24;;;;;;;14.77;3.63;;;;;;;;;;6243923;23;20016;-61
2023/05/26 04:07:50;;;;;;;23.50;5.00;;;;;;;;;;6217026;23;20047;-61
2023/05/26 04:10:16;;;;;;;28.65;4.22;;;;;;;;;;6216981;23;20317;-61
2023/05/26 04:12:45;;;;;;;23.67;4.80;;;;;;;;;;6216817;23;20070;-60
2023/05/26 04:15:11;;;;;;;19.50;4.22;;;;;;;;;;6243891;23;20051;-60
2023/05/26 04:17:37;;;;;;;24.13;4.50;;;;;;;;;;6216664;23;20016;-60
2023/05/26 04:20:10;;;;;;;32.70;5.30;;;;;;;;;;6243158;23;20027;-60
2023/05/26 04:22:36;;;;;;;23.00;5.10;;;;;;;;;;6191491;23;20024;-60
2023/05/26 04:25:03;;;;;;;24.63;5.82;;;;;;;;;;6243530;23;20455;-61
2023/05/26 04:27:29;;;;;;;34.95;5.47;;;;;;;;;;6243487;23;20449;-64
2023/05/26 04:29:58;;;;;;;31.75;5.18;;;;;;;;;;6243584;23;20024;-61
2023/05/26 04:32:25;;;;;;;27.85;5.55;;;;;;;;;;6215726;23;20020;-60
2023/05/26 04:34:52;;;;;;;23.60;5.93;;;;;;;;;;6242936;23;20342;-61
2023/05/26 04:37:18;;;;;;;23.25;5.13;;;;;;;;;;6215857;23;20032;-62
2023/05/26 04:39:44;;;;;;;32.60;5.57;;;;;;;;;;6243658;23;20341;-61
2023/05/26 04:42:10;;;;;;;24.90;4.72;;;;;;;;;;6216933;23;20095;-61
2023/05/26 04:44:40;;;;;;;23.52;5.50;;;;;;;;;;6243471;23;20067;-61
2023/05/26 04:47:08;;;;;;;25.27;6.10;;;;;;;;;;6216389;23;20441;-60
2023/05/26 04:49:35;;;;;;;22.52;4.55;;;;;;;;;;6243193;23;20028;-60
2023/05/26 04:52:01;;;;;;;27.48;5.43;;;;;;;;;;6244985;23;20020;-61
2023/05/26 04:54:27;;;;;;;24.58;5.43;;;;;;;;;;6219060;23;20016;-61
2023/05/26 04:56:53;;;;;;;23.92;6.18;;;;;;;;;;6245046;23;20445;-60
2023/05/26 04:59:21;;;;;;;24.95;5.97;;;;;;;;;;6216054;23;20027;-61
2023/05/26 05:01:51;;;;;;;26.60;6.97;;;;;;;;;;6192007;23;20020;-61
2023/05/26 05:04:17;;;;;;;25.08;5.45;;;;;;;;;;6217169;23;20016;-61
2023/05/26 05:06:44;;;;;;;28.00;5.05;;;;;;;;;;6245387;23;20028;-63
2023/05/26 05:09:10;;;;;;;33.08;5.65;;;;;;;;;;6193848;23;20055;-62
2023/05/26 05:11:36;;;;;;;25.55;5.10;;;;;;;;;;6214942;23;20387;-63
2023/05/26 05:14:02;;;;;;;24.63;4.53;;;;;;;;;;6218163;23;20024;-63
2023/05/26 05:16:28;;;;;;;28.50;4.70;;;;;;;;;;6217380;23;20024;-62
2023/05/26 05:18:58;;;;;;;26.60;5.18;;;;;;;;;;6218531;23;20074;-63
2023/05/26 05:21:24;;;;;;;25.70;4.85;;;;;;;;;;6217883;23;20090;-63
2023/05/26 05:23:50;;;;;;;22.90;4.35;;;;;;;;;;6194028;23;20027;-62
2023/05/26 05:26:16;;;;;;;28.02;6.13;;;;;;;;;;6217050;23;20738;-63
2023/05/26 05:28:42;;;;;;;30.48;5.93;;;;;;;;;;6245038;23;20467;-62
2023/05/26 05:31:08;;;;;;;35.78;4.63;;;;;;;;;;6244590;23;20496;-63
2023/05/26 05:33:40;;;;;;;22.05;6.68;;;;;;;;;;6243563;23;20016;-62
2023/05/26 05:36:06;;;;;;;33.40;5.53;;;;;;;;;;6245629;23;20020;-62
2023/05/26 05:38:32;;;;;;;28.55;3.83;;;;;;;;;;6191808;23;20535;-63
2023/05/26 05:41:01;;;;;;;29.40;5.03;;;;;;;;;;6218548;23;20440;-63
2023/05/26 05:43:30;;;;;;;35.15;6.32;;;;;;;;;;6242430;23;20074;-63
2023/05/26 05:45:56;;;;;;;22.73;4.63;;;;;;;;;;6240044;23;20016;-63
2023/05/26 05:48:22;;;;;;;24.02;4.50;;;;;;;;;;6240263;23;20456;-63
2023/05/26 05:50:48;;;;;;;30.02;5.20;;;;;;;;;;6189074;23;20441;-64
2023/05/26 05:53:14;;;;;;;26.05;4.28;;;;;;;;;;6214654;23;20024;-64
2023/05/26 05:55:40;;;;;;;24.33;4.75;;;;;;;;;;6217907;23;20484;-63
2023/05/26 05:58:06;;;;;;;29.13;4.78;;;;;;;;;;6240468;23;20126;-64
2023/05/26 06:00:32;;;;;;;31.88;5.28;;;;;;;;;;6217281;23;20079;-63
2023/05/26 06:02:58;;;;;;;24.30;4.28;;;;;;;;;;6213285;23;20028;-64
2023/05/26 06:05:24;;;;;;;26.02;5.07;;;;;;;;;;6243842;23;20016;-64
2023/05/26 06:07:52;;;;;;;22.92;4.43;;;;;;;;;;6189424;23;20016;-64
2023/05/26 06:10:18;;;;;;;15.48;4.43;;;;;;;;;;6243225;23;20357;-63
2023/05/26 06:12:44;;;;;;;23.25;5.63;;;;;;;;;;6213694;23;20019;-63
2023/05/26 06:15:11;;;;;;;19.77;4.07;;;;;;;;;;6214611;23;20063;-63
2023/05/26 06:17:37;;;;;;;25.10;4.40;;;;;;;;;;6240101;23;20135;-64
2023/05/26 06:20:03;;;;;;;25.33;4.10;;;;;;;;;;6213835;23;20441;-64
2023/05/26 06:22:29;;;;;;;23.85;4.82;;;;;;;;;;6240634;23;20022;-64
2023/05/26 06:24:55;;;;;;;33.08;5.30;;;;;;;;;;6189197;23;20020;-64
2023/05/26 06:27:21;;;;;;;22.88;5.10;;;;;;;;;;6212890;23;20095;-63
2023/05/26 06:29:47;;;;;;;22.25;3.80;;;;;;;;;;6215453;23;20027;-63
2023/05/26 06:32:13;;;;;;;18.30;4.38;;;;;;;;;;6215712;23;20027;-65
2023/05/26 06:34:40;;;;;;;18.40;3.70;;;;;;;;;;6192149;23;20518;-63
2023/05/26 06:37:06;;;;;;;30.35;4.22;;;;;;;;;;6218088;23;20020;-63
2023/05/26 06:39:32;;;;;;;17.33;4.15;;;;;;;;;;6217635;23;20078;-63
2023/05/26 06:41:58;;;;;;;22.80;3.40;;;;;;;;;;6217186;23;20020;-64
2023/05/26 06:44:24;;;;;;;26.13;4.55;;;;;;;;;;6218001;23;20012;-63
2023/05/26 06:46:50;;;;;;;19.65;3.60;;;;;;;;;;6217599;23;20012;-63
2023/05/26 06:49:16;;;;;;;29.45;5.75;;;;;;;;;;6216320;23;20098;-64
2023/05/26 06:51:42;;;;;;;19.40;4.53;;;;;;;;;;6244321;23;20027;-63
2023/05/26 06:54:08;;;;;;;19.48;4.28;;;;;;;;;;6217730;23;20645;-63
2023/05/26 06:56:39;;;;;;;20.65;4.63;;;;;;;;;;6217593;23;20012;-63
2023/05/26 06:59:07;;;;;;;19.38;3.88;;;;;;;;;;6218132;23;20407;-63
2023/05/26 07:01:33;;;;;;;19.95;4.00;;;;;;;;;;6243696;23;20098;-63
2023/05/26 07:03:59;;;;;;;21.42;4.28;;;;;;;;;;6217109;23;20016;-64
2023/05/26 07:06:25;;;;;;;20.30;4.22;;;;;;;;;;6243958;23;20455;-63
2023/05/26 07:08:51;;;;;;;27.25;4.97;;;;;;;;;;6218014;23;20016;-63
2023/05/26 07:11:17;;;;;;;21.90;4.55;;;;;;;;;;6216125;23;20016;-63
2023/05/26 07:13:46;;;;;;;20.63;3.70;;;;;;;;;;6215131;23;20436;-63
2023/05/26 07:16:12;;;;;;;20.75;4.13;;;;;;;;;;6244371;23;20012;-64
2023/05/26 07:18:38;;;;;;;12.10;2.80;;;;;;;;;;6244869;23;20035;-64
2023/05/26 07:21:04;;;;;;;23.17;5.60;;;;;;;;;;6217770;23;20018;-65
2023/05/26 07:23:30;;;;;;;17.88;3.80;;;;;;;;;;6240726;23;20020;-64
2023/05/26 07:25:56;;;;;;;22.35;4.18;;;;;;;;;;6215508;23;20062;-64
2023/05/26 07:28:23;;;;;;;20.75;3.90;;;;;;;;;;6214254;23;20051;-64
2023/05/26 07:30:49;;;;;;;15.90;3.40;;;;;;;;;;6215907;23;20027;-65
2023/05/26 07:33:15;;;;;;;22.92;4.07;;;;;;;;;;6216780;23;20023;-65
2023/05/26 07:35:41;;;;;;;17.73;3.80;;;;;;;;;;6217366;23;20012;-65
2023/05/26 07:38:07;;;;;;;25.50;5.28;;;;;;;;;;6242680;23;20020;-64
2023/05/26 07:40:37;;;;;;;22.17;4.75;;;;;;;;;;6241926;23;20024;-65
2023/05/26 07:43:03;;;;;;;15.63;3.97;;;;;;;;;;6215397;23;20091;-64
2023/05/26 07:45:30;;;;;;;20.40;3.30;;;;;;;;;;6244880;23;20016;-64
2023/05/26 07:47:56;;;;;;;24.63;4.18;;;;;;;;;;6217729;23;20070;-64
2023/05/26 07:50:22;;;;;;;16.42;3.67;;;;;;;;;;6191214;23;20341;-64
2023/05/26 07:52:48;;;;;;;18.70;3.95;;;;;;;;;;6215570;23;20020;-65
2023/05/26 07:55:14;;;;;;;19.73;3.05;;;;;;;;;;6214085;23;20027;-65
2023/05/26 07:57:40;;;;;;;13.23;2.90;;;;;;;;;;6243646;23;20012;-64
2023/05/26 08:00:09;;;;;;;14.35;3.40;;;;;;;;;;6217197;23;20020;-64
2023/05/26 08:02:35;;;;;;;15.15;4.07;;;;;;;;;;6216325;23;20561;-64
2023/05/26 08:05:01;;;;;;;16.30;3.00;;;;;;;;;;6216624;23;20024;-64
2023/05/26 08:07:27;;;;;;;16.30;3.17;;;;;;;;;;6189335;23;20098;-64
2023/05/26 08:09:56;;;;;;;14.25;2.95;;;;;;;;;;6215934;23;20016;-64
2023/05/26 08:12:22;;;;;;;21.15;5.80;;;;;;;;;;6241927;23;20098;-64
2023/05/26 08:14:49;;;;;;;16.20;3.35;;;;;;;;;;6216489;23;20329;-66
2023/05/26 08:17:15;;;;;;;21.00;4.13;;;;;;;;;;6215578;23;20075;-64
2023/05/26 08:19:41;;;;;;;20.77;2.60;;;;;;;;;;6242814;23;20020;-63
2023/05/26 08:22:07;;;;;;;23.10;4.07;;;;;;;;;;6215825;23;20020;-63
2023/05/26 08:24:34;;;;;;;23.77;3.58;;;;;;;;;;6214835;23;20448;-62
2023/05/26 08:27:00;;;;;;;19.13;3.15;;;;;;;;;;6218124;23;20016;-62
2023/05/26 08:29:26;;;;;;;15.43;2.85;;;;;;;;;;6245212;23;20028;-63
2023/05/26 08:31:53;;;;;;;14.70;3.20;;;;;;;;;;6245469;23;20016;-62
2023/05/26 08:34:19;;;;;;;13.57;2.78;;;;;;;;;;6243984;23;20020;-62
2023/05/26 08:36:46;;;;;;;11.45;2.50;;;;;;;;;;6244252;23;20482;-62
2023/05/26 08:39:12;;;;;;;17.20;3.95;;;;;;;;;;6217410;23;20453;-62
2023/05/26 08:41:48;;;;;;;36.13;4.53;;;;;;;;;;6192313;23;20527;-62
2023/05/26 08:44:15;;;;;;;14.02;2.70;;;;;;;;;;6244254;23;20016;-64
2023/05/26 08:46:42;;;;;;;21.60;3.28;;;;;;;;;;6191387;23;20020;-62
2023/05/26 08:49:08;;;;;;;13.65;3.03;;;;;;;;;;6218308;23;20558;-62
2023/05/26 08:51:36;;;;;;;19.25;3.42;;;;;;;;;;6217751;23;20059;-63
2023/05/26 08:54:03;;;;;;;15.73;2.78;;;;;;;;;;6216081;23;20030;-63
2023/05/26 08:56:29;;;;;;;14.07;3.05;;;;;;;;;;6216796;23;20031;-63
2023/05/26 08:58:56;;;;;;;11.68;3.03;;;;;;;;;;6245381;23;20020;-62
2023/05/26 09:01:22;;;;;;;22.70;4.22;;;;;;;;;;6215700;23;20467;-62
2023/05/26 09:03:48;;;;;;;17.67;3.75;;;;;;;;;;6244462;23;20023;-64
2023/05/26 09:06:14;;;;;;;12.40;2.55;;;;;;;;;;6244550;23;20020;-65
2023/05/26 09:08:40;;;;;;;10.30;3.10;;;;;;;;;;6244003;23;20471;-63
2023/05/26 09:11:27;;;;;;;9.75;2.70;;;;;;;;;;6245157;23;20016;-64
2023/05/26 09:13:56;;;;;;;13.98;3.22;;;;;;;;;;6218668;23;20020;-62
2023/05/26 09:16:26;;;;;;;13.70;3.05;;;;;;;;;;6243858;23;20103;-64
2023/05/26 09:18:58;;;;;;;11.47;2.50;;;;;;;;;;6217841;23;20027;-64
2023/05/26 09:21:30;;;;;;;10.70;2.58;;;;;;;;;;6216973;23;20578;-63
2023/05/26 09:23:58;;;;;;;12.27;3.10;;;;;;;;;;6215789;23;20070;-69
2023/05/26 09:26:27;;;;;;;12.70;2.42;;;;;;;;;;6217199;23;20013;-66
2023/05/26 09:28:54;;;;;;;18.67;3.67;;;;;;;;;;6244505;23;20024;-68
2023/05/26 09:31:20;;;;;;;14.70;3.17;;;;;;;;;;6192624;23;20020;-67
2023/05/26 09:33:46;;;;;;;11.68;3.22;;;;;;;;;;6218148;23;20802;-66
2023/05/26 09:36:13;;;;;;;13.57;3.35;;;;;;;;;;6217452;23;20024;-67
2023/05/26 09:38:41;;;;;;;10.52;2.60;;;17.10;99.90;;;;;;6243899;23;20020;-66
2023/05/26 09:41:07;;;;;;;11.10;2.70;;;;;;;;;;6244755;23;20020;-69
2023/05/26 09:43:34;;;;;;;12.13;2.45;;;;;;;;;;6217501;23;20030;-63
2023/05/26 09:46:00;;;;;;;14.63;4.00;;;;;;;;;;6215581;23;20441;-66
2023/05/26 09:48:26;;;;;;;12.60;2.55;;;;;;;;;;6244213;23;20024;-65
2023/05/26 09:50:52;;;;;;;13.90;2.97;;;;;;;;;;6217162;23;20079;-66
2023/05/26 09:53:18;;;;;;;12.68;3.28;;;;;;;;;;6243838;23;20027;-67
2023/05/26 09:55:45;;;;;;;12.43;2.53;;;;;;;;;;6243668;23;20020;-66
2023/05/26 09:58:12;;;;;;;14.88;2.70;;;;;;;;;;6244523;23;20016;-67
2023/05/26 10:00:42;;;;;;;19.30;3.20;;;;;;;;;;6244913;23;20016;-66
2023/05/26 10:03:10;;;;;;;17.20;3.50;;;;;;;;;;6218375;23;20055;-66
2023/05/26 10:05:45;;;;;;;24.50;3.97;;;;;;;;;;6216938;23;20027;-66
2023/05/26 10:08:12;;;;;;;14.50;2.85;;;;;;;;;;6217860;23;20345;-65
2023/05/26 10:10:39;;;;;;;13.82;3.30;;;;;;;;;;6244193;23;20027;-67
2023/05/26 10:13:07;;;;;;;15.75;3.13;;;;;;;;;;6217526;23;20027;-65
2023/05/26 10:15:33;;;;;;;13.23;3.83;;;;;;;;;;6243399;23;20079;-63
2023/05/26 10:18:01;;;;;;;13.38;3.33;;;17.20;99.90;;;;;;6214755;23;20023;-65
2023/05/26 10:20:27;;;;;;;13.43;3.03;;;;;;;;;;6242158;23;20031;-63
2023/05/26 10:22:58;;;;;;;14.98;2.83;;;;;;;;;;6243889;23;20012;-61
2023/05/26 10:25:25;;;;;;;15.95;3.25;;;;;;;;;;6242757;23;20031;-65
2023/05/26 10:28:04;;;;;;;13.50;2.88;;;;;;;;;;6216624;23;20024;-62
2023/05/26 10:30:33;;;;;;;15.05;2.40;;;;;;;;;;6244220;23;20333;-65
2023/05/26 10:33:13;;;;;;;12.45;3.25;;;;;;;;;;6192836;23;20027;-66
2023/05/26 10:35:53;;;;;;;20.50;2.93;;;;;;;;;;6217492;23;20052;-64
2023/05/26 10:38:19;;;;;;;13.15;2.70;;;;;;;;;;6243418;23;20047;-64
2023/05/26 10:40:50;;;;;;;14.07;2.95;;;;;;;;;;6242609;23;20055;-62
2023/05/26 10:43:20;;;;;;;11.23;3.05;;;;;;;;;;6243499;23;20016;-64
2023/05/26 10:46:00;;;;;;;11.23;3.08;;;;;;;;;;6243777;23;20026;-64
2023/05/26 10:48:37;;;;;;;9.20;2.70;;;;;;;;;;6215972;23;20016;-62
2023/05/26 10:51:03;;;;;;;11.10;2.80;;;;;;;;;;6217140;23;20074;-61
2023/05/26 10:53:34;;;;;;;10.52;3.03;;;;;;;;;;6243080;23;20016;-66
2023/05/26 10:56:12;;;;;;;15.15;3.15;;;17.60;99.90;;;;;;6217357;23;20096;-67
2023/05/26 10:58:40;;;;;;;11.60;2.60;;;18.00;99.90;;;;;;6244774;23;20111;-66
2023/05/26 11:01:08;;;;;;;13.90;3.72;;;;;;;;;;6244284;23;20019;-67
2023/05/26 11:03:37;;;;;;;13.70;2.97;;;;;;;;;;6243431;23;20062;-68
2023/05/26 11:06:04;;;;;;;16.13;3.42;;;;;;;;;;6242720;23;20437;-66
2023/05/26 11:08:46;;;;;;;18.02;4.07;;;;;;;;;;6243753;23;20047;-66
2023/05/26 11:11:13;;;;;;;17.08;3.05;;;;;;;;;;6217439;23;20016;-66
2023/05/26 11:13:42;;;;;;;10.60;2.75;;;;;;;;;;6243929;23;20027;-66
2023/05/26 11:16:18;;;;;;;13.45;3.47;;;;;;;;;;6243891;23;20109;-68
2023/05/26 11:18:51;;;;;;;18.35;3.55;;;;;;;;;;6191972;23;20532;-68
2023/05/26 11:21:18;;;;;;;10.40;2.30;;;;;;;;;;6191549;23;20445;-68
2023/05/26 11:23:45;;;;;;;15.38;3.15;;;;;;;;;;6243401;23;20020;-64
2023/05/26 11:26:15;;;;;;;14.88;4.13;;;;;;;;;;6243143;23;20016;-68
2023/05/26 11:28:45;;;;;;;12.45;2.67;;;;;;;;;;6244033;23;20058;-69
2023/05/26 11:31:11;;;;;;;14.32;4.03;;;;;;;;;;6244274;23;20035;-68
2023/05/26 11:33:38;;;;;;;12.65;3.08;;;;;;;;;;6214777;23;20567;-69
2023/05/26 11:36:12;;;;;;;14.35;2.60;;;;;;;;;;6215543;23;20027;-71
2023/05/26 11:38:38;;;;;;;12.70;3.30;;;;;;;;;;6216761;23;20020;-68
2023/05/26 11:41:05;;;;;;;14.50;3.40;;;;;;;;;;6217064;23;20550;-72
2023/05/26 11:43:31;;;;;;;15.63;2.78;;;;;;;;;;6243106;23;20030;-65
2023/05/26 11:46:02;;;;;;;17.02;2.80;;;;;;;;;;6242625;23;20016;-67
2023/05/26 11:48:35;;;;;;;12.45;3.08;;;;;;;;;;6216340;23;20031;-65
2023/05/26 11:51:01;;;;;;;16.55;4.53;;;;;;;;;;6215481;23;20055;-67
2023/05/26 11:53:30;;;;;;;13.15;2.83;;;;;;;;;;6190887;23;20059;-66
2023/05/26 11:56:03;;;;;;;12.80;2.67;;;;;;;;;;6216791;23;20020;-67
2023/05/26 11:58:31;;;;;;;10.32;2.85;;;;;;;;;;6243526;23;20027;-67
2023/05/26 12:00:58;;;;;;;14.38;2.70;;;;;;;;;;6243517;23;20024;-69
2023/05/26 12:03:24;;;;;;;11.48;2.72;;;;;;;;;;6245296;23;20016;-69
2023/05/26 12:05:50;;;;;;;15.52;3.97;;;;;;;;;;6218601;23;20349;-68
2023/05/26 12:08:16;;;;;;;9.35;2.85;;;;;;;;;;6218044;23;20024;-71
2023/05/26 12:10:43;;;;;;;15.63;3.17;;;;;;;;;;6244904;23;20090;-68
2023/05/26 12:13:09;;;;;;;15.88;3.67;;;;;;;;;;6218517;23;20020;-67
2023/05/26 12:15:35;;;;;;;16.25;4.30;;;;;;;;;;6192823;23;20483;-68
2023/05/26 12:18:02;;;;;;;9.90;2.50;;;;;;;;;;6246168;23;20392;-69
2023/05/26 12:20:29;;;;;;;15.90;3.20;;;;;;;;;;6245096;23;20074;-68
2023/05/26 12:23:01;;;;;;;11.73;3.67;;;;;;;;;;6193853;23;20024;-69
2023/05/26 12:25:29;;;;;;;10.10;2.45;;;;;;;;;;6245278;23;20017;-66
2023/05/26 12:27:55;;;;;;;13.98;3.13;;;;;;;;;;6244643;23;20020;-70
2023/05/26 12:30:26;;;;;;;12.30;3.10;;;;;;;;;;6217318;23;20029;-69
2023/05/26 12:32:52;;;;;;;15.75;3.47;;;;;;;;;;6218409;23;20131;-69
2023/05/26 12:35:18;;;;;;;9.93;2.55;;;;;;;;;;6244050;23;20469;-69
2023/05/26 12:37:45;;;;;;;13.32;2.92;;;;;;;;;;6193233;23;20024;-69
2023/05/26 12:40:11;;;;;;;21.23;4.55;;;;;;;;;;6219151;23;20395;-69
2023/05/26 12:42:38;;;;;;;11.82;2.97;;;;;;;;;;6245643;23;20020;-70
2023/05/26 12:45:05;;;;;;;15.52;4.32;;;;;;;;;;6217875;23;20318;-67
2023/05/26 12:47:31;;;;;;;10.65;3.17;;;;;;;;;;6243734;23;20020;-69
2023/05/26 12:49:57;;;;;;;19.40;3.00;;;;;;;;;;6219084;23;20016;-71
2023/05/26 12:52:23;;;;;;;13.93;3.58;;;;;;;;;;6193802;23;20020;-72
2023/05/26 12:54:50;;;;;;;18.25;2.97;;;;;;;;;;6217216;23;20437;-67
2023/05/26 12:57:16;;;;;;;14.60;2.85;;;;;;;;;;6192152;23;20013;-68
2023/05/26 12:59:42;;;;;;;15.57;3.10;;;;;;;;;;6245312;23;20028;-68
2023/05/26 13:02:08;;;;;;;10.80;2.53;;;;;;;;;;6245127;23;20031;-67
2023/05/26 13:04:35;;;;;;;14.00;3.38;;;;;;;;;;6243688;23;20027;-67
2023/05/26 13:07:01;;;;;;;11.68;3.70;;;;;;;;;;6193060;23;20062;-67
2023/05/26 13:09:29;;;;;;;18.20;3.22;;;;;;;;;;6218601;23;20314;-67
2023/05/26 13:11:57;;;;;;;12.90;3.47;;;;;;;;;;6245441;23;20069;-68
2023/05/26 13:14:24;;;;;;;12.82;2.90;;;;;;;;;;6212669;23;20017;-67
2023/05/26 13:16:50;;;;;;;24.23;4.32;;;;;;;;;;6218170;23;20047;-68
2023/05/26 13:19:16;;;;;;;11.40;3.65;;;;;;;;;;6193225;23;20332;-68
2023/05/26 13:21:42;;;;;;;20.90;3.50;;;;;;;;;;6217583;23;20016;-67
2023/05/26 13:24:09;;;;;;;16.73;3.50;;;;;;;;;;6218022;23;20024;-68
2023/05/26 13:26:36;;;;;;;20.27;4.00;;;;;;;;;;6217175;23;20020;-68
2023/05/26 13:29:02;;;;;;;19.15;4.15;;;;;;;;;;6243117;23;20012;-68
2023/05/26 13:31:30;;;;;;;16.05;3.63;;;;;;;;;;6244196;23;20028;-68
2023/05/26 13:33:56;;;;;;;11.52;3.20;;;;;;;;;;6218624;23;20016;-68
2023/05/26 13:36:23;;;;;;;18.35;3.88;;;;;;;;;;6245026;23;20052;-67
2023/05/26 13:38:49;;;;;;;20.88;3.30;;;;;;;;;;6244340;23;20020;-68
2023/05/26 13:41:18;;;;;;;15.63;3.40;;;;;;;;;;6217886;23;20051;-68
2023/05/26 13:43:45;;;;;;;24.55;3.97;;;;;;;;;;6192472;23;20026;-68
2023/05/26 13:46:11;;;;;;;10.85;3.25;;;;;;;;;;6244583;23;20051;-68
2023/05/26 13:48:37;;;;;;;17.67;3.97;;;;;;;;;;6216636;23;20047;-68
2023/05/26 13:51:03;;;;;;;15.18;3.28;;;;;;;;;;6217189;23;20020;-67
2023/05/26 13:53:29;;;;;;;14.77;3.75;;;;;;;;;;6244228;23;20501;-65
2023/05/26 13:55:55;;;;;;;12.80;3.80;;;;;;;;;;6191226;23;20018;-65
2023/05/26 13:58:21;;;;;;;15.50;3.22;;;;;;;;;;6216942;23;20028;-67
2023/05/26 14:00:47;;;;;;;13.80;3.03;;;;;;;;;;6217660;23;20012;-71
2023/05/26 14:03:13;;;;;;;16.63;3.72;;;;;;;;;;6215811;23;20103;-73
2023/05/26 14:05:40;;;;;;;12.45;2.63;;;;;;;;;;6243835;23;20016;-72
2023/05/26 14:08:06;;;;;;;13.68;3.13;;;;;;;;;;6244875;23;20150;-72
2023/05/26 14:10:36;;;;;;;16.83;3.78;;;;;;;;;;6192432;23;20031;-72
2023/05/26 14:13:02;;;;;;;15.73;3.70;;;;;;;;;;6211844;23;20032;-73
2023/05/26 14:15:31;;;;;;;16.30;3.70;;;;;;;;;;6214511;23;20059;-73
2023/05/26 14:17:58;;;;;;;17.52;4.05;;;;;;;;;;6243991;23;20047;-72
2023/05/26 14:20:24;;;;;;;15.68;3.70;;;;;;;;;;6192375;23;20027;-73
2023/05/26 14:22:50;;;;;;;13.43;3.60;;;;;;;;;;6244176;23;20023;-72
2023/05/26 14:25:16;;;;;;;14.00;3.58;;;;;;;;;;6216229;23;20059;-72
2023/05/26 14:27:42;;;;;;;17.25;3.33;;;;;;;;;;6191391;23;20020;-73